Newcomerstown, Ohio
Current Conditions -  °F | °C
As of 6:53 AM on Friday 31 Oct 2014 (Local Time) from KPHD Reporting Station
Overcast Overcast  
Wind Chill: 44°   Ceiling: 4700
Heat Index: 44°   Visibility: 10mi
Dew Point: 40°   Wind: 0mph
Humidity: 85%   Direction: NA
Pressure: 29.97"   Gusts: NA
Location:  40.27°N, 81.61°W
Report Text: KPHD 311053Z AUTO 00000KT 10SM OVC047 07/04 A2997 RMK AO2 SLP153 T00670044
Loading
Personal Weather Stations






























Interactive Weather Map
Tropical Storm Tracking
New forecast layout! Learn more

10-Day Weather Forecast

Advertisements
Track Severe Weather on mobile